createdAt,value
2019-05-22T00:00:02.751Z,14.20
2019-05-22T00:02:35.816Z,13.85
2019-05-22T00:05:26.495Z,14.07
2019-05-22T00:07:54.621Z,13.38
2019-05-22T00:10:25.364Z,13.15
2019-05-22T00:12:54.173Z,11.60
2019-05-22T00:15:24.182Z,12.73
2019-05-22T00:17:53.637Z,12.80
2019-05-22T00:20:22.785Z,13.85
2019-05-22T00:22:52.113Z,12.45
2019-05-22T00:25:20.169Z,13.32
2019-05-22T00:27:49.599Z,13.30
2019-05-22T00:30:17.480Z,14.40
2019-05-22T00:32:46.745Z,13.90
2019-05-22T00:35:15.878Z,12.60
2019-05-22T00:37:43.405Z,14.43
2019-05-22T00:40:14.564Z,13.35
2019-05-22T00:42:44.502Z,14.58
2019-05-22T00:45:13.952Z,13.65
2019-05-22T00:47:41.700Z,17.37
2019-05-22T00:50:12.304Z,16.32
2019-05-22T00:52:49.069Z,14.83
2019-05-22T00:55:35.811Z,14.30
2019-05-22T00:58:07.801Z,13.40
2019-05-22T01:00:42.075Z,14.23
2019-05-22T01:03:13.831Z,15.18
2019-05-22T01:05:43.043Z,13.98
2019-05-22T01:08:15.343Z,13.40
2019-05-22T01:10:43.922Z,13.13
2019-05-22T01:13:14.629Z,12.98
2019-05-22T01:15:43.140Z,13.78
2019-05-22T01:18:11.955Z,12.65
2019-05-22T01:20:41.440Z,13.90
2019-05-22T01:23:13.317Z,13.75
2019-05-22T01:25:42.623Z,12.18
2019-05-22T01:28:10.181Z,13.72
2019-05-22T01:30:46.980Z,12.75
2019-05-22T01:33:20.286Z,12.47
2019-05-22T01:35:59.473Z,12.50
2019-05-22T01:38:27.006Z,12.23
2019-05-22T01:40:58.001Z,12.18
2019-05-22T01:43:27.664Z,11.63
2019-05-22T01:45:55.710Z,11.03
2019-05-22T01:48:30.459Z,12.28
2019-05-22T01:50:57.982Z,12.25
2019-05-22T01:53:37.096Z,12.47
2019-05-22T01:56:06.930Z,11.55
2019-05-22T01:58:36.032Z,11.83
2019-05-22T02:01:08.818Z,13.22
2019-05-22T02:03:38.687Z,12.75
2019-05-22T02:06:06.915Z,12.60
2019-05-22T02:08:40.962Z,12.37
2019-05-22T02:11:13.091Z,11.75
2019-05-22T02:13:48.122Z,11.80
2019-05-22T02:16:16.321Z,12.15
2019-05-22T02:18:47.265Z,11.15
2019-05-22T02:21:15.987Z,12.65
2019-05-22T02:23:43.789Z,12.88
2019-05-22T02:26:12.936Z,11.63
2019-05-22T02:28:41.377Z,11.97
2019-05-22T02:31:11.120Z,11.90
2019-05-22T02:33:58.840Z,13.20
2019-05-22T02:39:55.257Z,11.80
2019-05-22T02:42:28.057Z,11.48
2019-05-22T02:44:57.231Z,12.18
2019-05-22T02:47:26.376Z,12.30
2019-05-22T02:49:57.039Z,12.40
2019-05-22T02:52:26.145Z,11.85
2019-05-22T02:54:54.935Z,12.93
2019-05-22T02:57:23.902Z,12.68
2019-05-22T02:59:52.754Z,13.10
2019-05-22T03:02:20.372Z,12.70
2019-05-22T03:04:57.975Z,12.35
2019-05-22T03:07:26.237Z,12.55
2019-05-22T03:09:54.088Z,13.32
2019-05-22T03:12:23.731Z,12.33
2019-05-22T03:14:51.409Z,12.73
2019-05-22T03:17:29.886Z,12.58
2019-05-22T03:19:59.298Z,11.28
2019-05-22T03:22:34.425Z,12.20
2019-05-22T03:25:05.376Z,12.85
2019-05-22T03:27:38.137Z,11.85
2019-05-22T03:30:09.621Z,12.80
2019-05-22T03:32:43.337Z,11.53
2019-05-22T03:35:07.965Z,11.20
2019-05-22T03:37:36.184Z,12.20
2019-05-22T03:40:05.256Z,12.33
2019-05-22T03:42:33.780Z,12.10
2019-05-22T03:45:01.456Z,13.10
2019-05-22T03:47:29.339Z,12.10
2019-05-22T03:49:58.100Z,11.68
2019-05-22T03:52:25.892Z,11.75
2019-05-22T03:54:55.486Z,11.80
2019-05-22T03:57:23.764Z,11.88
2019-05-22T03:59:52.417Z,11.45
2019-05-22T04:02:20.001Z,11.48
2019-05-22T04:04:48.158Z,12.13
2019-05-22T04:07:21.068Z,11.53
2019-05-22T04:09:52.117Z,11.83
2019-05-22T04:12:20.669Z,11.05
2019-05-22T04:14:48.544Z,11.45
2019-05-22T04:17:16.938Z,10.13
2019-05-22T04:19:50.607Z,11.28
2019-05-22T04:22:14.561Z,12.20
2019-05-22T04:24:42.678Z,12.43
2019-05-22T04:27:11.343Z,11.70
2019-05-22T04:29:40.228Z,11.57
2019-05-22T04:32:17.964Z,12.37
2019-05-22T04:34:46.867Z,12.50
2019-05-22T04:37:15.732Z,11.50
2019-05-22T04:39:45.596Z,11.83
2019-05-22T04:42:16.657Z,11.80
2019-05-22T04:45:07.873Z,11.85
2019-05-22T04:47:36.371Z,11.70
2019-05-22T04:50:07.951Z,12.80
2019-05-22T04:52:35.290Z,11.53
2019-05-22T04:55:03.742Z,11.78
2019-05-22T04:57:31.285Z,11.57
2019-05-22T04:59:59.077Z,11.85
2019-05-22T05:02:28.999Z,10.98
2019-05-22T05:04:58.154Z,11.38
2019-05-22T05:07:26.903Z,11.75
2019-05-22T05:09:54.877Z,11.78
2019-05-22T05:12:22.791Z,11.00
2019-05-22T05:14:50.355Z,10.60
2019-05-22T05:17:17.998Z,11.65
2019-05-22T05:19:45.789Z,11.65
2019-05-22T05:22:19.753Z,12.88
2019-05-22T05:24:47.533Z,11.43
2019-05-22T05:27:15.040Z,11.35
2019-05-22T05:29:42.964Z,12.03
2019-05-22T05:32:11.326Z,11.75
2019-05-22T05:35:00.320Z,11.12
2019-05-22T05:37:28.123Z,11.33
2019-05-22T05:40:34.410Z,12.07
2019-05-22T05:43:04.803Z,11.73
2019-05-22T05:45:33.181Z,10.95
2019-05-22T05:48:03.239Z,11.38
2019-05-22T05:50:39.463Z,11.18
2019-05-22T05:53:03.069Z,10.38
2019-05-22T05:56:00.187Z,10.38
2019-05-22T05:58:28.870Z,11.48
2019-05-22T06:01:02.426Z,12.00
2019-05-22T06:03:37.163Z,12.23
2019-05-22T06:06:53.249Z,13.30
2019-05-22T06:09:21.957Z,12.03
2019-05-22T06:11:51.609Z,12.55
2019-05-22T06:14:21.852Z,11.35
2019-05-22T06:17:34.211Z,12.05
2019-05-22T06:20:06.830Z,10.60
2019-05-22T06:22:34.388Z,10.25
2019-05-22T06:25:03.476Z,10.32
2019-05-22T06:27:43.608Z,13.28
2019-05-22T06:30:16.523Z,10.20
2019-05-22T06:33:16.844Z,10.08
2019-05-22T06:35:47.644Z,11.40
2019-05-22T06:38:44.622Z,13.00
2019-05-22T06:41:13.135Z,14.18
2019-05-22T06:44:46.983Z,14.58
2019-05-22T06:47:23.385Z,10.63
2019-05-22T06:49:53.520Z,10.63
2019-05-22T06:52:21.900Z,11.50
2019-05-22T06:54:50.562Z,9.38
2019-05-22T06:57:22.229Z,10.10
2019-05-22T07:00:10.831Z,11.65
2019-05-22T07:02:22.870Z,11.30
2019-05-22T07:04:51.491Z,11.93
2019-05-22T07:07:21.084Z,11.90
2019-05-22T07:09:49.128Z,11.78
2019-05-22T07:12:20.036Z,12.60
2019-05-22T07:15:24.843Z,11.63
2019-05-22T07:17:54.540Z,9.83
2019-05-22T07:20:23.338Z,10.30
2019-05-22T07:22:51.466Z,8.88
2019-05-22T07:25:19.480Z,8.48
2019-05-22T07:27:48.448Z,8.05
2019-05-22T07:30:16.401Z,7.95
2019-05-22T07:32:44.514Z,8.10
2019-05-22T07:35:12.556Z,8.08
2019-05-22T07:37:42.810Z,7.33
2019-05-22T07:40:10.822Z,8.08
2019-05-22T07:42:38.722Z,8.80
2019-05-22T07:45:06.764Z,8.55
2019-05-22T07:47:35.826Z,8.60
2019-05-22T07:50:03.863Z,8.80
2019-05-22T07:52:32.183Z,9.95
2019-05-22T07:55:00.523Z,10.50
2019-05-22T07:57:29.394Z,9.68
2019-05-22T07:59:57.234Z,10.10
2019-05-22T08:02:29.356Z,9.95
2019-05-22T08:04:57.319Z,11.48
2019-05-22T08:07:27.823Z,10.60
2019-05-22T08:09:56.586Z,10.75
2019-05-22T08:12:24.858Z,9.73
2019-05-22T08:14:53.266Z,9.43
2019-05-22T08:17:21.163Z,9.60
2019-05-22T08:19:48.989Z,9.85
2019-05-22T08:22:17.131Z,9.85
2019-05-22T08:24:46.214Z,9.75
2019-05-22T08:27:15.547Z,10.05
2019-05-22T08:29:44.223Z,10.28
2019-05-22T08:32:11.864Z,10.82
2019-05-22T08:34:41.592Z,10.23
2019-05-22T08:37:13.264Z,9.40
2019-05-22T08:39:40.894Z,9.85
2019-05-22T08:42:13.294Z,9.90
2019-05-22T08:44:40.850Z,10.63
2019-05-22T08:47:08.674Z,9.73
2019-05-22T08:49:38.033Z,10.60
2019-05-22T08:52:22.554Z,9.38
2019-05-22T08:54:37.894Z,10.43
2019-05-22T08:57:08.433Z,9.48
2019-05-22T08:59:36.854Z,9.45
2019-05-22T09:02:07.799Z,8.80
2019-05-22T09:04:35.459Z,9.20
2019-05-22T09:07:03.327Z,9.63
2019-05-22T09:09:30.880Z,8.78
2019-05-22T09:11:59.495Z,9.30
2019-05-22T09:14:27.025Z,8.33
2019-05-22T09:16:55.648Z,8.05
2019-05-22T09:19:23.290Z,8.73
2019-05-22T09:21:51.125Z,8.33
2019-05-22T09:24:19.273Z,8.53
2019-05-22T09:26:47.113Z,8.55
2019-05-22T09:29:15.780Z,8.23
2019-05-22T09:31:43.302Z,9.45
2019-05-22T09:34:10.883Z,8.38
2019-05-22T09:36:38.724Z,9.00
2019-05-22T09:39:06.914Z,8.88
2019-05-22T09:41:35.124Z,8.88
2019-05-22T09:44:03.392Z,9.18
2019-05-22T09:46:32.160Z,10.23
2019-05-22T09:49:00.146Z,9.38
2019-05-22T09:51:27.736Z,9.85
2019-05-22T09:53:56.410Z,9.73
2019-05-22T09:56:25.530Z,11.45
2019-05-22T09:58:53.227Z,12.47
2019-05-22T10:01:20.808Z,10.08
2019-05-22T10:03:48.342Z,12.35
2019-05-22T10:06:16.075Z,11.30
2019-05-22T10:08:43.750Z,13.30
2019-05-22T10:11:11.254Z,12.05
2019-05-22T10:13:39.003Z,12.50
2019-05-22T10:16:07.041Z,12.47
2019-05-22T10:18:35.056Z,12.55
2019-05-22T10:21:03.036Z,13.48
2019-05-22T10:23:31.543Z,12.88
2019-05-22T10:25:59.112Z,12.85
2019-05-22T10:28:27.657Z,12.20
2019-05-22T10:30:57.182Z,12.28
2019-05-22T10:33:25.800Z,13.60
2019-05-22T10:35:53.362Z,12.55
2019-05-22T10:38:21.085Z,12.10
2019-05-22T10:40:48.983Z,12.28
2019-05-22T10:43:17.423Z,10.80
2019-05-22T10:45:46.439Z,10.80
2019-05-22T10:48:14.291Z,11.50
2019-05-22T10:50:42.020Z,11.80
2019-05-22T10:53:09.814Z,10.05
2019-05-22T10:55:38.546Z,11.08
2019-05-22T10:58:07.480Z,11.25
2019-05-22T11:00:35.594Z,11.35
2019-05-22T11:03:04.097Z,10.53
2019-05-22T11:05:31.840Z,9.60
2019-05-22T11:08:00.419Z,10.60
2019-05-22T11:10:28.765Z,11.22
2019-05-22T11:12:57.210Z,10.63
2019-05-22T11:15:25.607Z,11.22
2019-05-22T11:17:53.918Z,11.35
2019-05-22T11:20:23.011Z,10.63
2019-05-22T11:22:50.984Z,9.70
2019-05-22T11:25:19.780Z,10.28
2019-05-22T11:27:47.640Z,10.23
2019-05-22T11:30:16.326Z,9.58
2019-05-22T11:32:44.413Z,8.78
2019-05-22T11:35:13.783Z,9.53
2019-05-22T11:37:41.688Z,10.25
2019-05-22T11:40:09.773Z,9.45
2019-05-22T11:42:38.025Z,10.43
2019-05-22T11:45:07.803Z,9.00
2019-05-22T11:47:35.753Z,9.30
2019-05-22T11:50:03.908Z,9.73
2019-05-22T11:52:32.231Z,9.70
2019-05-22T11:55:00.714Z,8.83
2019-05-22T11:57:29.727Z,9.80
2019-05-22T11:59:57.782Z,8.65
2019-05-22T12:02:25.877Z,9.15
2019-05-22T12:04:53.710Z,9.35
2019-05-22T12:07:21.795Z,8.43
2019-05-22T12:09:49.747Z,8.58
2019-05-22T12:12:18.256Z,8.65
2019-05-22T12:14:45.772Z,8.60
2019-05-22T12:17:14.565Z,8.18
2019-05-22T12:19:42.363Z,8.55
2019-05-22T12:22:10.127Z,8.18
2019-05-22T12:24:38.748Z,8.93
2019-05-22T12:27:07.291Z,8.35
2019-05-22T12:29:35.170Z,7.83
2019-05-22T12:32:03.629Z,8.28
2019-05-22T12:34:31.577Z,7.33
2019-05-22T12:36:59.197Z,7.92
2019-05-22T12:39:27.450Z,8.50
2019-05-22T12:41:55.679Z,8.33
2019-05-22T12:44:25.275Z,6.33
2019-05-22T12:46:52.916Z,6.80
2019-05-22T12:49:20.506Z,6.05
2019-05-22T12:51:48.870Z,6.67
2019-05-22T12:54:16.546Z,7.45
2019-05-22T12:56:44.783Z,8.08
2019-05-22T12:59:13.585Z,6.17
2019-05-22T13:01:41.811Z,6.78
2019-05-22T13:04:09.963Z,7.12
2019-05-22T13:06:37.881Z,7.33
2019-05-22T13:09:09.081Z,6.20
2019-05-22T13:11:36.953Z,5.22
2019-05-22T13:14:05.056Z,5.78
2019-05-22T13:16:33.860Z,5.90
2019-05-22T13:19:01.965Z,4.83
2019-05-22T13:21:30.588Z,5.12
2019-05-22T13:24:00.733Z,4.80
2019-05-22T13:26:29.286Z,3.98
2019-05-22T13:28:57.039Z,4.62
2019-05-22T13:31:24.965Z,4.47
2019-05-22T13:33:52.606Z,4.45
2019-05-22T13:36:20.864Z,3.95
2019-05-22T13:38:48.699Z,4.47
2019-05-22T13:41:16.316Z,4.55
2019-05-22T13:43:44.295Z,4.28
2019-05-22T13:46:12.564Z,4.08
2019-05-22T13:48:40.101Z,4.40
2019-05-22T13:51:08.107Z,4.50
2019-05-22T13:53:36.573Z,5.60
2019-05-22T13:56:05.709Z,5.05
2019-05-22T13:58:33.738Z,4.30
2019-05-22T14:01:01.911Z,4.30
2019-05-22T14:03:29.775Z,3.80
2019-05-22T14:05:58.626Z,4.90
2019-05-22T14:08:26.282Z,4.42
2019-05-22T14:10:54.009Z,6.53
2019-05-22T14:13:26.136Z,6.42
2019-05-22T14:15:56.950Z,5.20
2019-05-22T14:18:24.698Z,5.35
2019-05-22T14:20:52.921Z,5.58
2019-05-22T14:23:20.709Z,5.55
2019-05-22T14:25:49.463Z,5.25
2019-05-22T14:28:18.757Z,4.35
2019-05-22T14:30:46.740Z,4.37
2019-05-22T14:33:14.548Z,4.65
2019-05-22T14:35:48.723Z,5.10
2019-05-22T14:38:12.705Z,5.25
2019-05-22T14:40:41.873Z,5.08
2019-05-22T14:43:10.142Z,5.67
2019-05-22T14:45:37.634Z,5.55
2019-05-22T14:48:05.951Z,5.40
2019-05-22T14:50:33.830Z,6.33
2019-05-22T14:53:02.406Z,6.75
2019-05-22T14:55:31.827Z,6.12
2019-05-22T14:58:01.072Z,7.33
2019-05-22T15:00:28.911Z,5.78
2019-05-22T15:02:58.833Z,6.00
2019-05-22T15:05:26.332Z,5.75
2019-05-22T15:07:54.191Z,6.65
2019-05-22T15:10:22.663Z,5.92
2019-05-22T15:12:50.681Z,6.05
2019-05-22T15:15:20.677Z,6.00
2019-05-22T15:17:48.272Z,6.00
2019-05-22T15:20:18.227Z,5.30
2019-05-22T15:22:46.109Z,4.25
2019-05-22T15:25:13.820Z,4.70
2019-05-22T15:27:42.164Z,4.17
2019-05-22T15:30:11.126Z,3.72
2019-05-22T15:32:38.711Z,4.40
2019-05-22T15:35:09.334Z,5.22
2019-05-22T15:37:37.919Z,3.42
2019-05-22T15:40:07.534Z,3.17
2019-05-22T15:42:39.945Z,3.20
2019-05-22T15:45:10.414Z,2.42
2019-05-22T15:47:53.724Z,2.62
2019-05-22T15:50:11.402Z,2.80
2019-05-22T15:52:42.820Z,2.70
2019-05-22T15:55:11.575Z,2.80
2019-05-22T15:57:40.720Z,2.40
2019-05-22T16:00:11.449Z,2.35
2019-05-22T16:02:40.490Z,2.62
2019-05-22T16:05:08.143Z,2.87
2019-05-22T16:07:39.149Z,3.10
2019-05-22T16:10:07.821Z,2.70
2019-05-22T16:12:36.004Z,2.70
2019-05-22T16:15:05.531Z,3.05
2019-05-22T16:17:35.012Z,3.00
2019-05-22T16:20:02.847Z,3.10
2019-05-22T16:22:31.342Z,3.10
2019-05-22T16:25:00.059Z,3.52
2019-05-22T16:27:29.551Z,3.45
2019-05-22T16:29:59.750Z,3.27
2019-05-22T16:32:27.669Z,2.30
2019-05-22T16:34:56.204Z,2.70
2019-05-22T16:37:23.880Z,2.10
2019-05-22T16:39:51.400Z,2.70
2019-05-22T16:42:19.964Z,2.70
2019-05-22T16:44:48.082Z,2.85
2019-05-22T16:47:18.308Z,2.75
2019-05-22T16:49:47.263Z,2.90
2019-05-22T16:52:16.220Z,2.70
2019-05-22T16:54:44.665Z,3.00
2019-05-22T16:57:12.870Z,3.10
2019-05-22T16:59:41.455Z,2.87
2019-05-22T17:02:11.514Z,2.80
2019-05-22T17:04:40.162Z,2.75
2019-05-22T17:07:07.692Z,2.87
2019-05-22T17:09:38.770Z,2.90
2019-05-22T17:12:09.144Z,3.33
2019-05-22T17:14:37.301Z,2.75
2019-05-22T17:17:06.802Z,2.90
2019-05-22T17:19:34.730Z,3.55
2019-05-22T17:22:03.184Z,3.17
2019-05-22T17:24:34.111Z,3.90
2019-05-22T17:27:01.726Z,3.83
2019-05-22T17:29:31.481Z,3.05
2019-05-22T17:31:59.636Z,3.62
2019-05-22T17:34:37.172Z,2.98
2019-05-22T17:37:13.213Z,3.08
2019-05-22T17:39:44.033Z,3.42
2019-05-22T17:42:15.289Z,3.05
2019-05-22T17:44:47.675Z,3.42
2019-05-22T17:47:17.092Z,3.25
2019-05-22T17:49:45.360Z,3.20
2019-05-22T17:52:16.640Z,3.80
2019-05-22T17:54:45.527Z,3.45
2019-05-22T17:57:15.076Z,3.98
2019-05-22T17:59:43.978Z,4.10
2019-05-22T18:02:16.890Z,4.35
2019-05-22T18:04:50.716Z,3.85
2019-05-22T18:07:19.619Z,4.58
2019-05-22T18:09:47.803Z,3.90
2019-05-22T18:12:16.820Z,4.28
2019-05-22T18:14:45.082Z,4.03
2019-05-22T18:17:13.100Z,4.25
2019-05-22T18:19:41.110Z,4.42
2019-05-22T18:22:09.392Z,3.92
2019-05-22T18:24:37.395Z,4.58
2019-05-22T18:27:05.728Z,4.45
2019-05-22T18:29:33.631Z,4.10
2019-05-22T18:32:02.017Z,3.98
2019-05-22T18:34:29.603Z,4.12
2019-05-22T18:36:57.266Z,4.17
2019-05-22T18:39:24.938Z,4.58
2019-05-22T18:41:53.088Z,3.72
2019-05-22T18:44:21.300Z,3.83
2019-05-22T18:46:49.169Z,4.65
2019-05-22T18:49:16.730Z,4.17
2019-05-22T18:51:45.007Z,4.35
2019-05-22T18:54:12.812Z,4.83
2019-05-22T18:56:40.648Z,5.15
2019-05-22T18:59:08.461Z,5.10
2019-05-22T19:01:35.878Z,4.72
2019-05-22T19:04:03.421Z,4.17
2019-05-22T19:06:31.226Z,4.53
2019-05-22T19:08:58.854Z,4.58
2019-05-22T19:11:26.553Z,5.25
2019-05-22T19:13:54.367Z,4.58
2019-05-22T19:16:23.013Z,4.62
2019-05-22T19:18:50.558Z,4.70
2019-05-22T19:21:18.400Z,4.95
2019-05-22T19:23:46.295Z,5.28
2019-05-22T19:26:14.179Z,4.53
2019-05-22T19:28:44.154Z,4.35
2019-05-22T19:31:11.834Z,4.15
2019-05-22T19:33:39.988Z,4.65
2019-05-22T19:36:08.471Z,4.55
2019-05-22T19:38:36.152Z,4.30
2019-05-22T19:41:04.601Z,4.95
2019-05-22T19:43:32.872Z,5.00
2019-05-22T19:46:01.119Z,4.60
2019-05-22T19:48:28.996Z,4.85
2019-05-22T19:50:57.436Z,5.00
2019-05-22T19:53:26.114Z,4.72
2019-05-22T19:55:54.014Z,4.72
2019-05-22T19:58:22.497Z,4.80
2019-05-22T20:00:50.704Z,4.92
2019-05-22T20:03:18.577Z,4.60
2019-05-22T20:05:46.953Z,4.87
2019-05-22T20:08:14.939Z,4.62
2019-05-22T20:10:43.848Z,4.90
2019-05-22T20:13:12.686Z,5.17
2019-05-22T20:15:41.814Z,4.62
2019-05-22T20:18:10.356Z,5.35
2019-05-22T20:20:38.839Z,4.70
2019-05-22T20:23:08.808Z,5.15
2019-05-22T20:25:39.277Z,4.40
2019-05-22T20:28:10.096Z,5.00
2019-05-22T20:30:39.182Z,4.65
2019-05-22T20:33:09.618Z,4.50
2019-05-22T20:35:37.675Z,5.30
2019-05-22T20:38:06.995Z,4.40
2019-05-22T20:40:36.777Z,4.67
2019-05-22T20:43:08.564Z,4.72
2019-05-22T20:45:44.830Z,5.40
2019-05-22T20:48:21.255Z,5.08
2019-05-22T20:50:50.422Z,4.95
2019-05-22T20:53:21.516Z,4.30
2019-05-22T20:55:50.542Z,4.83
2019-05-22T20:58:20.696Z,4.58
2019-05-22T21:00:51.127Z,5.40
2019-05-22T21:03:21.371Z,4.90
2019-05-22T21:05:50.837Z,5.42
2019-05-22T21:08:21.484Z,4.72
2019-05-22T21:10:50.921Z,4.90
2019-05-22T21:13:19.412Z,4.83
2019-05-22T21:15:50.351Z,5.17
2019-05-22T21:18:21.293Z,4.80
2019-05-22T21:20:55.019Z,5.55
2019-05-22T21:23:22.649Z,5.17
2019-05-22T21:25:51.259Z,5.08
2019-05-22T21:28:20.014Z,5.25
2019-05-22T21:30:51.522Z,5.28
2019-05-22T21:33:20.223Z,5.65
2019-05-22T21:35:49.134Z,5.42
2019-05-22T21:38:19.221Z,5.97
2019-05-22T21:40:51.160Z,5.65
2019-05-22T21:43:22.487Z,6.03
2019-05-22T21:45:50.840Z,5.22
2019-05-22T21:48:20.356Z,5.65
2019-05-22T21:50:49.198Z,5.87
2019-05-22T21:53:17.499Z,6.87
2019-05-22T21:55:46.257Z,5.90
2019-05-22T21:58:14.733Z,5.92
2019-05-22T22:01:10.904Z,6.12
2019-05-22T22:03:43.291Z,5.72
2019-05-22T22:06:12.029Z,5.75
2019-05-22T22:08:39.730Z,5.90
2019-05-22T22:11:08.282Z,5.92
2019-05-22T22:13:37.571Z,6.00
2019-05-22T22:16:05.929Z,5.40
2019-05-22T22:18:33.751Z,6.45
2019-05-22T22:21:01.607Z,6.10
2019-05-22T22:23:30.244Z,6.87
2019-05-22T22:25:58.184Z,5.97
2019-05-22T22:28:26.557Z,7.08
2019-05-22T22:30:56.383Z,6.67
2019-05-22T22:33:28.374Z,5.78
2019-05-22T22:35:56.445Z,6.00
2019-05-22T22:38:26.293Z,6.03
2019-05-22T22:40:55.048Z,5.87
2019-05-22T22:43:27.820Z,6.42
2019-05-22T22:46:04.120Z,6.17
2019-05-22T22:48:34.608Z,5.70
2019-05-22T22:51:06.027Z,5.95
2019-05-22T22:53:33.950Z,6.12
2019-05-22T22:56:01.875Z,6.00
2019-05-22T22:58:29.727Z,6.80
2019-05-22T23:00:59.739Z,6.50
2019-05-22T23:03:27.949Z,6.03
2019-05-22T23:05:57.425Z,5.95
2019-05-22T23:08:28.989Z,6.20
2019-05-22T23:10:57.068Z,6.60
2019-05-22T23:13:24.661Z,6.17
2019-05-22T23:15:52.901Z,6.05
2019-05-22T23:19:04.163Z,4.92
2019-05-22T23:21:32.688Z,5.15
2019-05-22T23:23:59.940Z,5.90
2019-05-22T23:26:28.171Z,5.35
2019-05-22T23:28:56.644Z,5.90
2019-05-22T23:31:24.236Z,5.83
2019-05-22T23:33:52.980Z,5.55
2019-05-22T23:36:21.526Z,5.42
2019-05-22T23:38:51.070Z,5.62
2019-05-22T23:41:20.078Z,5.90
2019-05-22T23:43:48.603Z,6.35
2019-05-22T23:46:16.422Z,5.45
2019-05-22T23:48:44.593Z,5.65
2019-05-22T23:51:12.317Z,6.35
2019-05-22T23:53:41.527Z,6.05
2019-05-22T23:56:10.290Z,5.65
2019-05-22T23:58:52.073Z,6.28
